createdAt,value
2019-05-13T00:00:34.073Z,1.53
2019-05-13T00:03:03.855Z,1.80
2019-05-13T00:05:33.849Z,2.50
2019-05-13T00:08:03.490Z,2.40
2019-05-13T00:10:35.031Z,2.00
2019-05-13T00:13:04.385Z,1.80
2019-05-13T00:15:34.323Z,2.00
2019-05-13T00:18:04.009Z,1.87
2019-05-13T00:20:33.862Z,2.10
2019-05-13T00:23:03.897Z,2.00
2019-05-13T00:25:34.017Z,2.20
2019-05-13T00:28:04.131Z,1.80
2019-05-13T00:30:34.190Z,1.90
2019-05-13T00:33:03.786Z,1.80
2019-05-13T00:35:33.798Z,1.80
2019-05-13T00:38:03.975Z,1.60
2019-05-13T00:40:33.757Z,2.23
2019-05-13T00:43:03.874Z,2.93
2019-05-13T00:45:33.831Z,1.87
2019-05-13T00:48:04.552Z,2.03
2019-05-13T00:50:34.003Z,2.20
2019-05-13T00:53:04.262Z,2.20
2019-05-13T00:55:34.563Z,2.30
2019-05-13T00:58:04.789Z,2.13
2019-05-13T01:00:34.193Z,2.00
2019-05-13T01:03:04.018Z,2.50
2019-05-13T01:05:34.002Z,2.10
2019-05-13T01:08:04.662Z,2.37
2019-05-13T01:10:34.477Z,3.07
2019-05-13T01:13:04.601Z,2.10
2019-05-13T01:15:34.531Z,2.87
2019-05-13T01:18:04.189Z,2.10
2019-05-13T01:20:34.604Z,2.40
2019-05-13T01:23:04.116Z,2.17
2019-05-13T01:25:34.218Z,2.10
2019-05-13T01:28:04.479Z,2.10
2019-05-13T01:30:34.526Z,3.10
2019-05-13T01:33:04.569Z,2.40
2019-05-13T01:35:34.272Z,2.03
2019-05-13T01:38:04.816Z,1.90
2019-05-13T01:40:34.832Z,2.23
2019-05-13T01:43:04.134Z,2.00
2019-05-13T01:45:33.752Z,2.70
2019-05-13T01:48:07.144Z,2.17
2019-05-13T01:50:33.830Z,3.33
2019-05-13T01:53:04.178Z,1.90
2019-05-13T01:55:34.120Z,2.17
2019-05-13T01:58:04.215Z,1.70
2019-05-13T02:00:35.263Z,2.37
2019-05-13T02:03:04.267Z,2.33
2019-05-13T02:05:33.990Z,2.20
2019-05-13T02:08:04.474Z,1.80
2019-05-13T02:10:53.814Z,2.50
2019-05-13T02:13:24.006Z,2.10
2019-05-13T02:15:54.841Z,2.83
2019-05-13T02:18:24.414Z,2.40
2019-05-13T02:20:55.474Z,2.30
2019-05-13T02:23:24.504Z,2.67
2019-05-13T02:25:54.467Z,2.33
2019-05-13T02:28:25.045Z,2.27
2019-05-13T02:30:56.195Z,2.20
2019-05-13T02:33:24.890Z,2.50
2019-05-13T02:35:53.995Z,1.87
2019-05-13T02:38:28.740Z,2.87
2019-05-13T02:40:53.632Z,1.93
2019-05-13T02:43:23.950Z,2.60
2019-05-13T02:45:54.130Z,2.70
2019-05-13T02:48:23.895Z,2.60
2019-05-13T02:50:53.909Z,2.47
2019-05-13T02:53:23.913Z,2.20
2019-05-13T02:55:53.236Z,2.07
2019-05-13T02:58:24.381Z,3.90
2019-05-13T03:00:53.953Z,2.70
2019-05-13T03:03:23.488Z,2.00
2019-05-13T03:05:54.050Z,2.30
2019-05-13T03:08:39.320Z,2.77
2019-05-13T03:11:12.871Z,2.37
2019-05-13T03:13:42.575Z,2.33
2019-05-13T03:16:13.805Z,2.03
2019-05-13T03:18:43.607Z,2.40
2019-05-13T03:21:13.318Z,2.90
2019-05-13T03:23:44.218Z,2.80
2019-05-13T03:26:13.342Z,2.83
2019-05-13T03:28:43.539Z,2.33
2019-05-13T03:31:16.870Z,2.50
2019-05-13T03:33:46.841Z,2.80
2019-05-13T03:36:16.606Z,2.40
2019-05-13T03:39:03.867Z,2.30
2019-05-13T03:41:17.508Z,2.50
2019-05-13T03:43:47.646Z,2.27
2019-05-13T03:46:21.965Z,2.40
2019-05-13T03:48:53.009Z,2.67
2019-05-13T03:51:23.246Z,1.93
2019-05-13T03:53:53.567Z,2.30
2019-05-13T03:56:23.880Z,3.00
2019-05-13T03:58:54.002Z,2.40
2019-05-13T04:01:23.378Z,3.10
2019-05-13T04:03:53.120Z,2.73
2019-05-13T04:06:23.250Z,2.40
2019-05-13T04:08:53.840Z,2.47
2019-05-13T04:11:23.386Z,1.90
2019-05-13T04:13:53.014Z,2.30
2019-05-13T04:16:23.825Z,2.67
2019-05-13T04:18:53.627Z,3.17
2019-05-13T04:21:22.966Z,2.73
2019-05-13T04:23:53.353Z,2.47
2019-05-13T04:26:23.565Z,1.80
2019-05-13T04:28:53.249Z,2.60
2019-05-13T04:31:22.955Z,3.07
2019-05-13T04:33:53.468Z,3.10
2019-05-13T04:36:23.753Z,3.77
2019-05-13T04:38:53.031Z,3.17
2019-05-13T04:41:23.125Z,2.30
2019-05-13T04:43:54.014Z,2.83
2019-05-13T04:46:23.067Z,2.90
2019-05-13T04:48:53.234Z,2.30
2019-05-13T04:51:22.857Z,4.40
2019-05-13T04:53:56.161Z,3.10
2019-05-13T04:56:22.565Z,3.30
2019-05-13T04:58:52.750Z,3.27
2019-05-13T05:01:52.246Z,4.23
2019-05-13T05:04:34.800Z,4.30
2019-05-13T05:07:22.399Z,5.87
2019-05-13T05:10:21.281Z,5.30
2019-05-13T05:13:16.744Z,5.70
2019-05-13T05:16:03.353Z,5.23
2019-05-13T05:18:43.731Z,4.93
2019-05-13T05:21:17.963Z,5.70
2019-05-13T05:23:52.490Z,6.07
2019-05-13T05:26:42.009Z,4.00
2019-05-13T05:29:44.009Z,3.40
2019-05-13T05:32:24.822Z,3.63
2019-05-13T05:35:17.136Z,3.87
2019-05-13T05:37:53.730Z,3.47
2019-05-13T05:40:31.483Z,5.13
2019-05-13T05:42:56.569Z,5.13
2019-05-13T05:45:25.283Z,5.60
2019-05-13T05:47:55.681Z,5.30
2019-05-13T05:50:25.537Z,6.03
2019-05-13T05:52:55.092Z,6.30
2019-05-13T05:55:26.520Z,6.17
2019-05-13T05:57:57.531Z,5.53
2019-05-13T06:00:26.361Z,5.97
2019-05-13T06:02:56.414Z,6.77
2019-05-13T06:05:26.255Z,5.97
2019-05-13T06:07:55.481Z,5.20
2019-05-13T06:10:24.212Z,5.83
2019-05-13T06:12:54.164Z,6.47
2019-05-13T06:15:22.944Z,5.70
2019-05-13T06:17:51.887Z,5.80
2019-05-13T06:20:21.143Z,5.90
2019-05-13T06:22:51.605Z,4.03
2019-05-13T06:25:23.503Z,4.57
2019-05-13T06:27:51.341Z,4.70
2019-05-13T06:30:21.797Z,4.53
2019-05-13T06:32:52.497Z,3.13
2019-05-13T06:35:21.858Z,4.00
2019-05-13T06:37:52.065Z,3.70
2019-05-13T06:40:24.471Z,2.87
2019-05-13T06:42:53.186Z,3.33
2019-05-13T06:45:21.886Z,3.67
2019-05-13T06:47:58.290Z,2.50
2019-05-13T06:50:27.015Z,2.93
2019-05-13T06:52:55.687Z,2.70
2019-05-13T06:55:24.382Z,2.43
2019-05-13T06:57:53.095Z,3.10
2019-05-13T07:00:21.857Z,2.30
2019-05-13T07:02:51.730Z,3.07
2019-05-13T07:05:22.726Z,2.70
2019-05-13T07:07:51.961Z,3.50
2019-05-13T07:10:21.690Z,2.50
2019-05-13T07:12:51.952Z,1.93
2019-05-13T07:15:22.406Z,2.70
2019-05-13T07:17:52.056Z,2.27
2019-05-13T07:20:22.875Z,2.10
2019-05-13T07:22:53.173Z,2.00
2019-05-13T07:25:22.322Z,2.93
2019-05-13T07:27:51.604Z,2.53
2019-05-13T07:30:35.391Z,2.40
2019-05-13T07:33:04.103Z,2.70
2019-05-13T07:35:37.920Z,3.07
2019-05-13T07:38:03.724Z,2.30
2019-05-13T07:40:32.403Z,2.80
2019-05-13T07:43:01.684Z,2.70
2019-05-13T07:45:31.612Z,3.17
2019-05-13T07:48:01.383Z,2.97
2019-05-13T07:50:32.226Z,2.80
2019-05-13T07:53:02.947Z,2.50
2019-05-13T07:55:31.721Z,2.00
2019-05-13T07:58:02.067Z,3.10
2019-05-13T08:00:32.655Z,2.13
2019-05-13T08:03:01.776Z,2.10
2019-05-13T08:05:31.421Z,1.93
2019-05-13T08:08:02.252Z,2.30
2019-05-13T08:10:32.002Z,2.70
2019-05-13T08:13:02.352Z,2.60
2019-05-13T08:15:31.741Z,2.57
2019-05-13T08:18:02.978Z,2.07
2019-05-13T08:20:34.487Z,2.20
2019-05-13T08:23:03.212Z,3.97
2019-05-13T08:25:34.466Z,3.00
2019-05-13T08:28:04.685Z,3.03
2019-05-13T08:30:33.499Z,1.80
2019-05-13T08:33:02.189Z,2.93
2019-05-13T08:35:31.529Z,3.03
2019-05-13T08:38:02.508Z,2.60
2019-05-13T08:40:31.689Z,2.70
2019-05-13T08:43:01.419Z,3.13
2019-05-13T08:45:31.469Z,3.00
2019-05-13T08:48:02.122Z,3.87
2019-05-13T08:50:32.354Z,2.33
2019-05-13T08:53:01.903Z,2.43
2019-05-13T08:55:32.170Z,3.33
2019-05-13T08:58:02.640Z,3.10
2019-05-13T09:00:49.331Z,2.87
2019-05-13T09:03:21.719Z,2.33
2019-05-13T09:05:52.369Z,2.20
2019-05-13T09:08:42.466Z,2.97
2019-05-13T09:11:14.304Z,2.87
2019-05-13T09:13:44.223Z,2.50
2019-05-13T09:16:13.456Z,2.20
2019-05-13T09:18:44.073Z,2.57
2019-05-13T09:21:12.954Z,2.80
2019-05-13T09:23:43.372Z,2.57
2019-05-13T09:26:13.682Z,2.27
2019-05-13T09:28:42.591Z,2.07
2019-05-13T09:31:12.856Z,2.13
2019-05-13T09:34:01.562Z,2.30
2019-05-13T09:36:32.410Z,2.50
2019-05-13T09:39:02.032Z,1.53
2019-05-13T09:41:32.264Z,2.07
2019-05-13T09:44:02.215Z,2.10
2019-05-13T09:46:31.946Z,1.63
2019-05-13T09:49:14.965Z,1.43
2019-05-13T09:51:32.428Z,1.87
2019-05-13T09:54:01.547Z,2.20
2019-05-13T09:56:31.921Z,2.37
2019-05-13T09:59:01.774Z,2.07
2019-05-13T10:01:31.969Z,1.77
2019-05-13T10:04:03.029Z,1.90
2019-05-13T10:06:32.730Z,1.30
2019-05-13T10:09:02.443Z,1.70
2019-05-13T10:11:31.325Z,1.40
2019-05-13T10:14:02.068Z,1.23
2019-05-13T10:16:31.432Z,1.20
2019-05-13T10:19:01.592Z,1.30
2019-05-13T10:21:32.674Z,1.50
2019-05-13T10:24:01.575Z,1.20
2019-05-13T10:26:32.025Z,1.90
2019-05-13T10:29:01.640Z,1.60
2019-05-13T10:31:31.407Z,1.67
2019-05-13T10:34:02.331Z,1.80
2019-05-13T10:36:31.318Z,1.20
2019-05-13T10:39:01.380Z,1.60
2019-05-13T10:41:33.240Z,1.70
2019-05-13T10:44:02.948Z,1.87
2019-05-13T10:46:32.118Z,1.73
2019-05-13T10:49:01.874Z,1.30
2019-05-13T10:51:32.640Z,1.10
2019-05-13T10:54:01.215Z,1.93
2019-05-13T10:56:32.799Z,1.87
2019-05-13T10:59:02.324Z,1.53
2019-05-13T11:01:32.792Z,1.43
2019-05-13T11:04:02.599Z,1.47
2019-05-13T11:06:32.489Z,1.47
2019-05-13T11:09:02.047Z,1.00
2019-05-13T11:11:33.001Z,1.13
2019-05-13T11:14:10.715Z,1.87
2019-05-13T11:16:32.076Z,1.47
2019-05-13T11:19:02.904Z,1.10
2019-05-13T11:21:32.142Z,1.40
2019-05-13T11:24:03.418Z,1.20
2019-05-13T11:26:36.074Z,1.00
2019-05-13T11:29:02.913Z,1.67
2019-05-13T11:31:32.904Z,1.20
2019-05-13T11:34:02.128Z,0.83
2019-05-13T11:36:33.343Z,0.97
2019-05-13T11:39:03.071Z,1.87
2019-05-13T11:41:32.683Z,1.10
2019-05-13T11:44:12.995Z,1.30
2019-05-13T11:46:33.304Z,0.97
2019-05-13T11:49:02.739Z,1.00
2019-05-13T11:51:32.357Z,1.10
2019-05-13T11:54:02.527Z,1.00
2019-05-13T11:56:33.715Z,0.90
2019-05-13T11:59:04.355Z,1.17
2019-05-13T12:01:33.364Z,0.83
2019-05-13T12:04:03.021Z,1.37
2019-05-13T12:06:33.920Z,1.40
2019-05-13T12:09:03.345Z,1.30
2019-05-13T12:11:33.432Z,1.10
2019-05-13T12:14:02.602Z,1.13
2019-05-13T12:16:34.749Z,1.03
2019-05-13T12:19:03.526Z,1.20
2019-05-13T12:21:32.399Z,1.80
2019-05-13T12:24:09.482Z,1.23
2019-05-13T12:26:33.322Z,1.30
2019-05-13T12:29:02.719Z,1.77
2019-05-13T12:34:03.531Z,1.50
2019-05-13T12:36:33.051Z,0.90
2019-05-13T12:39:01.803Z,1.60
2019-05-13T12:41:32.968Z,1.43
2019-05-13T12:44:01.822Z,1.37
2019-05-13T12:46:30.813Z,1.40
2019-05-13T12:49:03.712Z,1.37
2019-05-13T12:51:32.520Z,1.80
2019-05-13T12:54:03.762Z,2.47
2019-05-13T12:56:33.402Z,1.40
2019-05-13T12:59:03.119Z,1.03
2019-05-13T13:01:32.601Z,1.20
2019-05-13T13:04:02.283Z,1.77
2019-05-13T13:06:40.017Z,1.17
2019-05-13T13:09:01.689Z,1.63
2019-05-13T13:11:32.371Z,1.30
2019-05-13T13:14:05.399Z,1.50
2019-05-13T13:16:34.565Z,1.93
2019-05-13T13:19:02.629Z,2.13
2019-05-13T13:21:34.349Z,2.03
2019-05-13T13:24:04.483Z,1.60
2019-05-13T13:26:33.547Z,1.53
2019-05-13T13:29:02.763Z,1.50
2019-05-13T13:31:33.709Z,1.40
2019-05-13T13:34:11.360Z,1.73
2019-05-13T13:36:33.529Z,2.30
2019-05-13T13:39:03.782Z,1.77
2019-05-13T13:41:34.368Z,1.30
2019-05-13T13:44:05.630Z,1.63
2019-05-13T13:46:42.486Z,1.50
2019-05-13T13:49:03.882Z,1.90
2019-05-13T13:51:34.404Z,1.63
2019-05-13T13:54:03.016Z,1.70
2019-05-13T13:56:32.706Z,1.40
2019-05-13T13:59:04.478Z,1.37
2019-05-13T14:01:33.355Z,2.20
2019-05-13T14:04:03.799Z,1.43
2019-05-13T14:06:33.064Z,1.50
2019-05-13T14:07:25.410Z,2.10
2019-05-13T14:09:04.882Z,2.43
2019-05-13T14:11:33.591Z,1.70
2019-05-13T14:14:02.369Z,1.93
2019-05-13T14:16:34.922Z,1.60
2019-05-13T14:19:01.783Z,1.37
2019-05-13T14:21:32.385Z,1.43
2019-05-13T14:24:02.619Z,1.60
2019-05-13T14:26:33.047Z,2.20
2019-05-13T14:29:02.771Z,1.67
2019-05-13T14:31:32.452Z,1.73
2019-05-13T14:34:03.686Z,1.30
2019-05-13T14:36:31.840Z,1.60
2019-05-13T14:39:02.796Z,1.83
2019-05-13T14:41:31.355Z,1.57
2019-05-13T14:44:03.495Z,1.63
2019-05-13T14:46:46.791Z,1.63
2019-05-13T14:49:01.762Z,1.77
2019-05-13T14:51:32.369Z,3.10
2019-05-13T14:54:02.719Z,1.40
2019-05-13T14:56:32.316Z,1.53
2019-05-13T14:59:02.693Z,1.73
2019-05-13T15:01:32.176Z,1.70
2019-05-13T15:04:02.830Z,1.67
2019-05-13T15:06:32.726Z,1.60
2019-05-13T15:09:01.928Z,1.70
2019-05-13T15:11:32.372Z,1.20
2019-05-13T15:14:02.417Z,1.83
2019-05-13T15:16:31.880Z,2.07
2019-05-13T15:19:01.513Z,1.80
2019-05-13T15:21:32.058Z,1.80
2019-05-13T15:24:02.304Z,1.90
2019-05-13T15:26:31.451Z,1.70
2019-05-13T15:29:04.706Z,1.67
2019-05-13T15:31:34.089Z,2.17
2019-05-13T15:34:02.869Z,1.47
2019-05-13T15:36:31.722Z,2.43
2019-05-13T15:39:01.421Z,1.70
2019-05-13T15:41:30.476Z,1.60
2019-05-13T15:43:59.250Z,1.70
2019-05-13T15:46:27.926Z,1.60
2019-05-13T15:48:56.893Z,1.70
2019-05-13T15:51:25.653Z,1.70
2019-05-13T15:53:57.143Z,1.90
2019-05-13T15:56:24.949Z,1.63
2019-05-13T15:58:53.716Z,1.90
2019-05-13T16:01:23.059Z,2.00
2019-05-13T16:03:52.390Z,1.47
2019-05-13T16:06:21.472Z,1.60
2019-05-13T16:08:51.900Z,1.67
2019-05-13T16:11:21.916Z,2.00
2019-05-13T16:13:52.577Z,1.70
2019-05-13T16:16:22.176Z,2.07
2019-05-13T16:18:51.629Z,1.37
2019-05-13T16:21:20.577Z,2.20
2019-05-13T16:23:51.417Z,2.07
2019-05-13T16:26:22.469Z,2.07
2019-05-13T16:28:52.655Z,1.43
2019-05-13T16:31:21.673Z,2.00
2019-05-13T16:33:52.278Z,2.00
2019-05-13T16:36:42.834Z,2.03
2019-05-13T16:39:12.386Z,2.40
2019-05-13T16:41:42.592Z,2.00
2019-05-13T16:44:11.924Z,1.63
2019-05-13T16:46:42.486Z,1.77
2019-05-13T16:49:12.260Z,1.70
2019-05-13T16:51:42.666Z,2.60
2019-05-13T16:54:11.742Z,2.10
2019-05-13T16:56:42.108Z,1.80
2019-05-13T16:59:11.001Z,1.80
2019-05-13T17:01:41.827Z,2.00
2019-05-13T17:04:12.356Z,1.90
2019-05-13T17:06:41.725Z,2.10
2019-05-13T17:09:11.562Z,2.17
2019-05-13T17:11:41.468Z,1.70
2019-05-13T17:14:10.556Z,2.27
2019-05-13T17:16:41.406Z,3.00
2019-05-13T17:19:11.876Z,3.47
2019-05-13T17:21:41.105Z,2.00
2019-05-13T17:24:12.538Z,2.07
2019-05-13T17:26:41.771Z,2.83
2019-05-13T17:29:12.053Z,2.20
2019-05-13T17:31:41.664Z,2.70
2019-05-13T17:34:12.069Z,3.00
2019-05-13T17:36:41.950Z,3.40
2019-05-13T17:39:12.530Z,2.03
2019-05-13T17:41:41.619Z,2.30
2019-05-13T17:44:11.602Z,2.00
2019-05-13T17:46:41.932Z,2.10
2019-05-13T17:49:11.866Z,1.90
2019-05-13T17:51:42.610Z,1.57
2019-05-13T17:54:11.854Z,1.40
2019-05-13T17:56:41.112Z,1.50
2019-05-13T17:59:11.424Z,1.80
2019-05-13T18:01:41.252Z,1.83
2019-05-13T18:04:11.828Z,1.97
2019-05-13T18:06:41.762Z,1.50
2019-05-13T18:09:11.972Z,1.40
2019-05-13T18:11:41.729Z,1.40
2019-05-13T18:14:11.405Z,1.73
2019-05-13T18:16:41.931Z,1.23
2019-05-13T18:19:11.961Z,1.27
2019-05-13T18:21:42.394Z,1.70
2019-05-13T18:24:12.031Z,1.33
2019-05-13T18:26:41.793Z,1.27
2019-05-13T18:29:12.320Z,1.40
2019-05-13T18:31:42.219Z,1.33
2019-05-13T18:34:12.197Z,1.10
2019-05-13T18:36:42.589Z,0.97
2019-05-13T18:39:12.388Z,1.70
2019-05-13T18:41:41.536Z,1.20
2019-05-13T18:44:12.259Z,1.13
2019-05-13T18:46:41.847Z,1.40
2019-05-13T18:49:11.998Z,1.33
2019-05-13T18:51:42.312Z,1.60
2019-05-13T18:54:31.530Z,1.40
2019-05-13T18:57:01.610Z,1.70
2019-05-13T18:59:32.135Z,1.23
2019-05-13T19:02:01.473Z,1.10
2019-05-13T19:04:31.329Z,1.70
2019-05-13T19:07:02.311Z,1.37
2019-05-13T19:09:31.082Z,1.50
2019-05-13T19:12:01.442Z,1.93
2019-05-13T19:14:31.948Z,1.35
2019-05-13T19:17:01.094Z,1.20
2019-05-13T19:19:31.681Z,1.43
2019-05-13T19:22:02.217Z,2.00
2019-05-13T19:24:31.213Z,1.50
2019-05-13T19:27:01.771Z,0.83
2019-05-13T19:29:31.827Z,1.23
2019-05-13T19:32:01.796Z,1.00
2019-05-13T19:34:32.347Z,1.47
2019-05-13T19:37:02.378Z,1.03
2019-05-13T19:39:31.568Z,1.10
2019-05-13T19:42:00.355Z,1.03
2019-05-13T19:44:31.357Z,1.30
2019-05-13T19:47:01.942Z,1.60
2019-05-13T19:49:36.663Z,1.20
2019-05-13T19:52:01.852Z,1.03
2019-05-13T19:54:31.500Z,1.23
2019-05-13T19:57:01.350Z,1.23
2019-05-13T19:59:33.502Z,1.33
2019-05-13T20:02:02.318Z,0.90
2019-05-13T20:04:31.386Z,1.80
2019-05-13T20:07:00.684Z,1.60
2019-05-13T20:09:32.007Z,1.40
2019-05-13T20:12:02.061Z,0.97
2019-05-13T20:14:30.418Z,1.00
2019-05-13T20:17:01.462Z,1.27
2019-05-13T20:19:46.100Z,1.40
2019-05-13T20:22:02.213Z,1.27
2019-05-13T20:24:31.303Z,1.77
2019-05-13T20:27:01.526Z,2.10
2019-05-13T20:29:30.877Z,1.00
2019-05-13T20:32:01.331Z,1.40
2019-05-13T20:34:31.806Z,1.23
2019-05-13T20:37:02.033Z,1.63
2019-05-13T20:39:38.267Z,1.40
2019-05-13T20:42:06.985Z,1.37
2019-05-13T20:44:35.652Z,1.40
2019-05-13T20:47:04.503Z,1.23
2019-05-13T20:49:33.423Z,1.37
2019-05-13T20:52:02.119Z,1.30
2019-05-13T20:54:31.544Z,1.53
2019-05-13T20:57:01.948Z,1.20
2019-05-13T20:59:32.189Z,1.20
2019-05-13T21:02:02.366Z,1.33
2019-05-13T21:04:32.252Z,1.30
2019-05-13T21:07:02.135Z,1.40
2019-05-13T21:09:31.679Z,1.23
2019-05-13T21:12:01.809Z,1.20
2019-05-13T21:14:31.984Z,1.50
2019-05-13T21:17:01.465Z,2.10
2019-05-13T21:19:39.301Z,1.23
2019-05-13T21:22:00.726Z,1.23
2019-05-13T21:24:31.708Z,1.47
2019-05-13T21:27:01.787Z,1.50
2019-05-13T21:29:32.335Z,1.63
2019-05-13T21:32:01.316Z,1.27
2019-05-13T21:34:31.613Z,1.10
2019-05-13T21:37:02.399Z,1.53
2019-05-13T21:39:32.007Z,1.43
2019-05-13T21:42:02.371Z,2.10
2019-05-13T21:44:32.628Z,1.50
2019-05-13T21:47:02.236Z,1.50
2019-05-13T21:49:32.022Z,1.50
2019-05-13T21:52:00.899Z,1.60
2019-05-13T21:54:33.232Z,1.37
2019-05-13T21:57:02.067Z,1.30
2019-05-13T21:59:31.899Z,1.50
2019-05-13T22:02:01.671Z,1.70
2019-05-13T22:04:30.446Z,1.70
2019-05-13T22:07:01.307Z,1.20
2019-05-13T22:09:31.725Z,1.93
2019-05-13T22:12:02.100Z,1.77
2019-05-13T22:14:32.066Z,1.60
2019-05-13T22:17:01.720Z,1.83
2019-05-13T22:19:31.568Z,1.47
2019-05-13T22:22:02.261Z,1.60
2019-05-13T22:24:31.392Z,1.20
2019-05-13T22:27:01.951Z,2.10
2019-05-13T22:29:32.201Z,1.40
2019-05-13T22:32:01.970Z,1.00
2019-05-13T22:34:31.880Z,1.63
2019-05-13T22:37:02.495Z,0.93
2019-05-13T22:39:34.553Z,1.50
2019-05-13T22:42:01.904Z,1.43
2019-05-13T22:44:32.501Z,1.47
2019-05-13T22:47:02.407Z,1.73
2019-05-13T22:49:31.689Z,1.40
2019-05-13T22:52:00.570Z,0.97
2019-05-13T22:54:31.641Z,1.17
2019-05-13T22:56:59.765Z,1.70
2019-05-13T22:59:28.434Z,2.60
2019-05-13T23:01:57.343Z,1.00
2019-05-13T23:04:26.028Z,1.37
2019-05-13T23:06:54.739Z,1.57
2019-05-13T23:09:23.459Z,1.30
2019-05-13T23:11:52.162Z,1.23
2019-05-13T23:14:22.044Z,1.43
2019-05-13T23:16:50.971Z,1.10
2019-05-13T23:19:21.745Z,1.33
2019-05-13T23:21:51.163Z,0.97
2019-05-13T23:24:21.900Z,0.93
2019-05-13T23:26:51.509Z,1.20
2019-05-13T23:29:21.428Z,1.37
2019-05-13T23:31:52.071Z,1.27
2019-05-13T23:34:22.331Z,1.47
2019-05-13T23:36:51.626Z,1.37
2019-05-13T23:39:21.628Z,1.03
2019-05-13T23:41:52.120Z,2.13
2019-05-13T23:44:27.609Z,1.43
2019-05-13T23:46:51.535Z,1.50
2019-05-13T23:49:21.078Z,1.30
2019-05-13T23:51:51.994Z,1.23
2019-05-13T23:54:21.290Z,1.20
2019-05-13T23:56:50.538Z,1.37
2019-05-13T23:59:19.220Z,1.67
